Time;durP1;ratioP1;P1;durP2;ratioP2;P2;SDS_P1;SDS_P2;PMS_P1;PMS_P2;Temp;Humidity;BMP_temperature;BMP_pressure;BME280_temperature;BME280_humidity;BME280_pressure;Samples;Min_cycle;Max_cycle;Signal;HPM_P1;HPM_P2
2021/01/15 00:01:19;;;;;;;;;;;;;;;-2.90;96.36;100011.96;1867205;77;20424;-41
2021/01/15 00:03:48;;;;;;;;;;;;;;;-2.90;96.41;100016.67;1868134;75;20502;-42
2021/01/15 00:06:25;;;;;;;;;;;;;;;-2.93;96.40;100010.17;1868431;75;20165;-42
2021/01/15 00:08:53;;;;;;;;;;;;;;;-2.91;96.40;100014.06;1867281;75;20273;-41
2021/01/15 00:11:23;;;;;;;;;;;;;;;-2.93;96.39;100010.58;1867394;77;20138;-43
2021/01/15 00:13:52;;;;;;;;;;;;;;;-2.95;96.42;100008.38;1867557;77;20384;-42
2021/01/15 00:16:24;;;;;;;;;;;;;;;-2.96;96.41;100002.83;1867402;77;20122;-42
2021/01/15 00:18:53;;;;;;;;;;;;;;;-2.98;96.44;100001.91;1867435;77;20269;-42
2021/01/15 00:21:25;;;;;;;;;;;;;;;-2.99;96.49;99993.76;1867350;77;20154;-42
2021/01/15 00:23:55;;;;;;;;;;;;;;;-3.00;96.57;99977.50;1867636;77;20146;-42
2021/01/15 00:26:25;;;;;;;;;;;;;;;-3.01;96.66;99974.48;1867457;77;20174;-41
2021/01/15 00:28:53;;;;;;;;;;;;;;;-3.02;96.72;99961.20;1867439;77;20186;-42
2021/01/15 00:31:31;;;;;;;;;;;;;;;-3.04;96.76;99956.47;1867211;77;20222;-42
2021/01/15 00:33:59;;;;;;;;;;;;;;;-3.05;96.79;99953.45;1837544;77;20133;-42
2021/01/15 00:36:27;;;;;;;;;;;;;;;-3.05;96.83;99955.14;1867420;77;20409;-41
2021/01/15 00:38:55;;;;;;;;;;;;;;;-3.07;96.85;99973.05;1867304;77;20257;-41
2021/01/15 00:41:23;;;;;;;;;;;;;;;-3.08;96.89;99986.69;1867260;77;20285;-41
2021/01/15 00:43:51;;;;;;;;;;;;;;;-3.08;96.95;99986.69;1867323;77;20141;-41
2021/01/15 00:46:31;;;;;;;;;;;;;;;-3.07;97.00;99974.73;1867339;77;20138;-41
2021/01/15 00:49:06;;;;;;;;;;;;;;;-3.06;97.05;99966.22;1867385;77;20295;-42
2021/01/15 00:51:35;;;;;;;;;;;;;;;-3.06;97.08;99962.37;1867240;77;20186;-41
2021/01/15 00:54:06;;;;;;;;;;;;;;;-3.07;97.08;99961.51;1867530;77;20264;-42
2021/01/15 00:56:35;;;;;;;;;;;;;;;-3.06;97.16;99968.38;1867199;77;20137;-42
2021/01/15 00:59:05;;;;;;;;;;;;;;;-3.06;97.18;99964.53;1867283;77;20164;-42
2021/01/15 01:01:36;;;;;;;;;;;;;;;-3.05;97.18;99953.45;1867443;76;20235;-41
2021/01/15 01:04:06;;;;;;;;;;;;;;;-3.05;97.18;99957.70;1874601;76;20418;-41
2021/01/15 01:06:33;;;;;;;;;;;;;;;-3.07;97.16;99955.10;1867228;76;20279;-41
2021/01/15 01:09:07;;;;;;;;;;;;;;;-3.08;97.17;99944.38;1867658;77;20135;-41
2021/01/15 01:11:32;;;;;;;;;;;;;;;-3.07;97.21;99937.56;1866947;76;20135;-41
2021/01/15 01:14:00;;;;;;;;;;;;;;;-3.05;97.26;99943.61;1867248;77;20152;-41
2021/01/15 01:16:29;;;;;;;;;;;;;;;-3.05;97.26;99942.33;1867307;77;20307;-42
2021/01/15 01:18:57;;;;;;;;;;;;;;;-3.04;97.37;99941.50;1867256;77;20180;-42
2021/01/15 01:21:25;;;;;;;;;;;;;;;-3.03;97.42;99954.38;1867496;77;20414;-42
2021/01/15 01:23:53;;;;;;;;;;;;;;;-3.01;97.45;99951.41;1867184;77;20223;-42
2021/01/15 01:26:22;;;;;;;;;;;;;;;-2.97;97.48;99952.38;1867185;77;20267;-42
2021/01/15 01:28:50;;;;;;;;;;;;;;;-2.94;97.48;99966.53;1867314;77;20137;-42
2021/01/15 01:31:17;;;;;;;;;;;;;;;-2.91;97.47;99966.22;1867224;77;20164;-43
2021/01/15 01:33:45;;;;;;;;;;;;;;;-2.88;97.47;99965.40;1867355;77;20140;-41
2021/01/15 01:36:15;;;;;;;;;;;;;;;-2.87;97.45;99953.91;1867137;76;20121;-41
2021/01/15 01:38:42;;;;;;;;;;;;;;;-2.87;97.40;99944.94;1867254;77;20191;-42
2021/01/15 01:41:10;;;;;;;;;;;;;;;-2.87;97.36;99940.22;1867418;77;20223;-42
2021/01/15 01:43:38;;;;;;;;;;;;;;;-2.88;97.32;99934.63;1867102;77;20144;-44
2021/01/15 01:46:06;;;;;;;;;;;;;;;-2.91;97.33;99929.44;1867229;77;20207;-41
2021/01/15 01:48:35;;;;;;;;;;;;;;;-2.92;97.37;99936.27;1867594;77;20390;-42
2021/01/15 01:51:04;;;;;;;;;;;;;;;-2.92;97.41;99936.67;1867428;76;20255;-42
2021/01/15 01:53:32;;;;;;;;;;;;;;;-2.91;97.45;99934.16;1867258;77;20223;-42
2021/01/15 01:56:02;;;;;;;;;;;;;;;-2.89;97.43;99944.02;1867224;77;20139;-42
2021/01/15 01:58:31;;;;;;;;;;;;;;;-2.90;97.45;99957.70;1867399;77;20140;-42
2021/01/15 02:01:01;;;;;;;;;;;;;;;-2.90;97.44;99944.00;1867123;77;20224;-40
2021/01/15 02:03:30;;;;;;;;;;;;;;;-2.91;97.45;99938.01;1867302;77;20216;-41
2021/01/15 02:05:58;;;;;;;;;;;;;;;-2.94;97.42;99936.63;1867195;77;20266;-41
2021/01/15 02:08:30;;;;;;;;;;;;;;;-2.97;97.43;99942.11;1867376;77;20366;-41
2021/01/15 02:11:08;;;;;;;;;;;;;;;-2.96;97.49;99936.16;1867492;76;20465;-42
2021/01/15 02:13:55;;;;;;;;;;;;;;;-2.97;97.49;99949.39;1867229;77;20121;-42
2021/01/15 02:16:24;;;;;;;;;;;;;;;-2.97;97.55;99954.94;1867465;77;20204;-41
2021/01/15 02:18:54;;;;;;;;;;;;;;;-2.96;97.57;99950.27;1867453;77;20371;-41
2021/01/15 02:21:34;;;;;;;;;;;;;;;-2.95;97.61;99941.30;1867183;76;20141;-42
2021/01/15 02:27:04;;;;;;;;;;;;;;;-2.89;97.62;99932.48;1918359;74;20272;-41
2021/01/15 02:29:32;;;;;;;;;;;;;;;-2.93;97.64;99942.22;1890440;75;20279;-41
2021/01/15 02:32:13;;;;;;;;;;;;;;;-2.94;97.66;99946.89;1903317;75;20263;-42
2021/01/15 02:35:03;;;;;;;;;;;;;;;-2.94;97.67;99945.61;1903113;75;20488;-46
2021/01/15 02:37:47;;;;;;;;;;;;;;;-2.95;97.72;99951.56;1903098;75;20231;-41
2021/01/15 02:40:19;;;;;;;;;;;;;;;-2.95;97.75;99960.53;1902947;75;20151;-42
2021/01/15 02:42:49;;;;;;;;;;;;;;;-2.95;97.77;99967.36;1903433;75;20168;-42
2021/01/15 02:45:16;;;;;;;;;;;;;;;-2.96;97.82;99967.80;1902829;75;20152;-42
2021/01/15 02:47:53;;;;;;;;;;;;;;;-2.96;97.86;99960.52;1869435;75;20136;-42
2021/01/15 02:50:25;;;;;;;;;;;;;;;-2.97;97.89;99956.22;1903168;75;20457;-41
2021/01/15 02:52:56;;;;;;;;;;;;;;;-3.00;97.87;99958.28;1903188;75;20176;-42
2021/01/15 02:55:25;;;;;;;;;;;;;;;-3.01;97.92;99960.80;1902996;75;20199;-42
2021/01/15 02:57:54;;;;;;;;;;;;;;;-3.02;97.99;99968.89;1903113;75;20262;-41
2021/01/15 03:00:22;;;;;;;;;;;;;;;-3.02;98.02;99980.88;1882663;75;20153;-42
2021/01/15 03:03:10;;;;;;;;;;;;;;;-3.04;98.04;99985.95;1868112;76;20124;-41
2021/01/15 03:05:52;;;;;;;;;;;;;;;-3.02;98.09;99997.55;1867745;76;20239;-42
2021/01/15 03:08:20;;;;;;;;;;;;;;;-3.04;98.15;100000.47;1868223;76;20129;-42
2021/01/15 03:10:52;;;;;;;;;;;;;;;-3.06;98.15;100002.12;1867929;77;20267;-42
2021/01/15 03:13:20;;;;;;;;;;;;;;;-3.08;98.15;99996.94;1868305;76;20234;-41
2021/01/15 03:15:48;;;;;;;;;;;;;;;-3.10;98.23;99988.36;1868136;77;20159;-42
2021/01/15 03:18:16;;;;;;;;;;;;;;;-3.10;98.27;99986.21;1868156;77;20255;-41
2021/01/15 03:20:44;;;;;;;;;;;;;;;-3.11;98.34;99975.09;1868029;76;20167;-41
2021/01/15 03:23:12;;;;;;;;;;;;;;;-3.11;98.39;99980.63;1868008;77;20159;-42
2021/01/15 03:25:42;;;;;;;;;;;;;;;-3.11;98.41;99985.75;1868132;77;20129;-41
2021/01/15 03:28:09;;;;;;;;;;;;;;;-3.11;98.46;99990.47;1868250;76;20236;-43
2021/01/15 03:30:37;;;;;;;;;;;;;;;-3.12;98.48;100003.23;1868161;77;20449;-41
2021/01/15 03:33:05;;;;;;;;;;;;;;;-3.12;98.53;100011.80;1868135;77;20388;-42
2021/01/15 03:35:33;;;;;;;;;;;;;;;-3.11;98.58;100010.11;1868064;77;20167;-41
2021/01/15 03:38:03;;;;;;;;;;;;;;;-3.11;98.63;100024.20;1867330;76;20133;-42
2021/01/15 03:40:34;;;;;;;;;;;;;;;-3.11;98.66;100004.56;1867597;76;20390;-41
2021/01/15 03:43:03;;;;;;;;;;;;;;;-3.10;98.69;100005.03;1867359;77;20151;-41
2021/01/15 03:45:31;;;;;;;;;;;;;;;-3.10;98.69;99992.21;1866529;76;20252;-42
2021/01/15 03:47:59;;;;;;;;;;;;;;;-3.12;98.68;99988.73;1867275;77;20128;-42
2021/01/15 03:50:27;;;;;;;;;;;;;;;-3.13;98.69;99995.96;1867416;76;20164;-41
2021/01/15 03:52:54;;;;;;;;;;;;;;;-3.16;98.70;99991.18;1867520;77;20148;-42
2021/01/15 03:55:24;;;;;;;;;;;;;;;-3.17;98.71;99992.87;1867261;76;20153;-42
2021/01/15 03:57:52;;;;;;;;;;;;;;;-3.17;98.74;99990.72;1867179;77;20120;-42
2021/01/15 04:00:20;;;;;;;;;;;;;;;-3.18;98.74;99977.03;1867468;77;20133;-42
2021/01/15 04:02:48;;;;;;;;;;;;;;;-3.21;98.75;99971.81;1867384;77;20135;-42
2021/01/15 04:05:16;;;;;;;;;;;;;;;-3.22;98.77;99969.66;1867130;77;20227;-41
2021/01/15 04:07:44;;;;;;;;;;;;;;;-3.25;98.81;99971.28;1867587;76;20160;-41
2021/01/15 04:10:14;;;;;;;;;;;;;;;-3.26;98.85;99983.64;1867370;77;20469;-42
2021/01/15 04:12:42;;;;;;;;;;;;;;;-3.28;98.88;99981.03;1867362;76;20156;-42
2021/01/15 04:15:11;;;;;;;;;;;;;;;-3.27;98.91;99979.34;1867176;76;20238;-42
2021/01/15 04:17:39;;;;;;;;;;;;;;;-3.29;98.93;99975.48;1867437;77;20184;-42
2021/01/15 04:20:09;;;;;;;;;;;;;;;-3.30;98.95;99967.74;1867230;76;20176;-42
2021/01/15 04:22:38;;;;;;;;;;;;;;;-3.34;99.00;99957.80;1867475;77;20160;-42
2021/01/15 04:25:08;;;;;;;;;;;;;;;-3.34;99.10;99947.55;1867407;75;20176;-42
2021/01/15 04:27:37;;;;;;;;;;;;;;;-3.34;99.19;99949.25;1867257;76;20122;-42
2021/01/15 04:30:10;;;;;;;;;;;;;;;-3.35;99.26;99959.91;1867478;77;20165;-41
2021/01/15 04:32:44;;;;;;;;;;;;;;;-3.35;99.31;99973.16;1866715;77;20182;-42
2021/01/15 04:35:16;;;;;;;;;;;;;;;-3.37;99.38;99977.38;1867198;77;20221;-42
2021/01/15 04:37:44;;;;;;;;;;;;;;;-3.38;99.44;99974.34;1867300;75;20162;-42
2021/01/15 04:40:13;;;;;;;;;;;;;;;-3.40;99.51;99958.92;1867283;77;20162;-43
2021/01/15 04:42:45;;;;;;;;;;;;;;;-3.40;99.58;99967.89;1867407;77;20380;-43
2021/01/15 04:45:14;;;;;;;;;;;;;;;-3.41;99.65;99986.66;1867074;77;20174;-42
2021/01/15 04:47:46;;;;;;;;;;;;;;;-3.40;99.70;99979.83;1867178;77;20190;-44
2021/01/15 04:50:15;;;;;;;;;;;;;;;-3.41;99.72;99990.49;1867353;77;20150;-42
2021/01/15 04:52:49;;;;;;;;;;;;;;;-3.41;99.76;99994.75;1867215;77;20130;-42
2021/01/15 04:55:23;;;;;;;;;;;;;;;-3.41;99.77;99990.49;1867436;77;20146;-42
2021/01/15 04:57:52;;;;;;;;;;;;;;;-3.41;99.78;99992.19;1866908;77;20210;-43
2021/01/15 05:00:22;;;;;;;;;;;;;;;-3.43;99.80;99985.77;1867223;75;20122;-45
2021/01/15 05:02:50;;;;;;;;;;;;;;;-3.42;99.86;99984.07;1867139;77;20138;-43
2021/01/15 05:05:23;;;;;;;;;;;;;;;-3.42;99.86;99990.06;1867005;77;20229;-42
2021/01/15 05:08:06;;;;;;;;;;;;;;;-3.41;99.88;99991.77;1869942;75;20462;-41
2021/01/15 05:10:37;;;;;;;;;;;;;;;-3.40;99.89;100001.61;1862118;75;20243;-42
2021/01/15 05:13:08;;;;;;;;;;;;;;;-3.40;99.89;99996.48;1877708;75;20186;-42
2021/01/15 05:15:38;;;;;;;;;;;;;;;-3.41;99.91;99999.46;1867102;77;20439;-42
2021/01/15 05:18:06;;;;;;;;;;;;;;;-3.42;99.90;99999.45;1867171;77;20249;-42
2021/01/15 05:20:35;;;;;;;;;;;;;;;-3.42;99.92;100008.00;1867267;77;20193;-43
2021/01/15 05:23:03;;;;;;;;;;;;;;;-3.42;99.96;100010.56;1867301;77;20178;-48
2021/01/15 05:25:32;;;;;;;;;;;;;;;-3.42;99.96;100010.97;1866757;77;20135;-42
2021/01/15 05:28:00;;;;;;;;;;;;;;;-3.41;100.00;100019.96;1871377;75;20183;-42
2021/01/15 05:30:30;;;;;;;;;;;;;;;-3.40;100.00;100026.83;1877004;75;20397;-42
2021/01/15 05:32:59;;;;;;;;;;;;;;;-3.38;100.00;100025.19;1890091;75;20158;-44
2021/01/15 05:35:43;;;;;;;;;;;;;;;-3.36;100.00;100020.98;1867716;75;20178;-44
2021/01/15 05:38:15;;;;;;;;;;;;;;;-3.34;100.00;100012.03;1874537;75;20189;-45
2021/01/15 05:40:55;;;;;;;;;;;;;;;-3.30;100.00;100016.44;1872446;75;20164;-41
2021/01/15 05:43:25;;;;;;;;;;;;;;;-3.30;100.00;100011.31;1876562;75;20277;-42
2021/01/15 05:46:07;;;;;;;;;;;;;;;-3.30;100.00;100016.44;1901789;75;20191;-43
2021/01/15 05:48:37;;;;;;;;;;;;;;;-3.29;100.00;100000.23;1869572;75;20131;-43
2021/01/15 05:51:06;;;;;;;;;;;;;;;-3.27;100.00;99983.19;1866630;75;20133;-42
2021/01/15 05:53:40;;;;;;;;;;;;;;;-3.26;100.00;99975.95;1852974;75;20207;-44
2021/01/15 05:56:09;;;;;;;;;;;;;;;-3.23;100.00;99978.62;1846432;75;20417;-49
2021/01/15 05:58:36;;;;;;;;;;;;;;;-3.23;99.97;99978.62;1870220;75;20843;-44
2021/01/15 06:01:06;;;;;;;;;;;;;;;-3.23;99.91;99983.33;1872816;75;20150;-43
2021/01/15 06:03:34;;;;;;;;;;;;;;;-3.23;99.89;99992.71;1873706;75;20480;-43
2021/01/15 06:06:04;;;;;;;;;;;;;;;-3.22;99.88;99982.92;1852789;75;20188;-43
2021/01/15 06:08:42;;;;;;;;;;;;;;;-3.21;99.86;99988.06;1870831;75;20162;-47
2021/01/15 06:11:17;;;;;;;;;;;;;;;-3.17;99.88;99990.72;1868749;75;20175;-44
2021/01/15 06:13:45;;;;;;;;;;;;;;;-3.16;99.87;100003.59;1868919;75;20528;-44
2021/01/15 06:16:16;;;;;;;;;;;;;;;-3.14;99.83;100009.59;1871263;75;20184;-43
2021/01/15 06:19:03;;;;;;;;;;;;;;;-3.16;99.76;100018.97;1872464;75;20149;-46
2021/01/15 06:21:33;;;;;;;;;;;;;;;-3.16;99.71;100018.09;1876387;75;20233;-43
2021/01/15 06:27:05;;;;;;;;;;;;;;;-3.09;99.61;100034.97;1898803;74;20300;-44
2021/01/15 06:29:43;;;;;;;;;;;;;;;-3.09;99.58;100034.97;1848392;75;20224;-42
2021/01/15 06:32:11;;;;;;;;;;;;;;;-3.02;99.55;100039.41;1870945;75;20196;-44
2021/01/15 06:34:48;;;;;;;;;;;;;;;-2.94;99.48;100049.88;1844801;77;20279;-43
2021/01/15 06:37:20;;;;;;;;;;;;;;;-2.91;99.36;100049.97;1836664;75;20180;-45
2021/01/15 06:40:08;;;;;;;;;;;;;;;-2.88;99.26;100067.57;1869775;75;20215;-44
2021/01/15 06:42:48;;;;;;;;;;;;;;;-2.82;99.18;100071.99;1867501;77;20185;-43
2021/01/15 06:45:16;;;;;;;;;;;;;;;-2.78;99.05;100071.27;1870007;75;20246;-53
2021/01/15 06:47:45;;;;;;;;;;;;;;;-2.75;98.94;100071.33;1874421;75;20281;-44
2021/01/15 06:50:16;;;;;;;;;;;;;;;-2.71;98.84;100069.31;1869863;75;20399;-44
2021/01/15 06:52:51;;;;;;;;;;;;;;;-2.67;98.73;100067.69;1870732;75;20278;-45
2021/01/15 06:55:26;;;;;;;;;;;;;;;-2.67;98.51;100070.25;1876476;75;20162;-44
2021/01/15 06:57:54;;;;;;;;;;;;;;;-2.65;98.21;100075.89;1871482;75;20188;-43
2021/01/15 07:00:23;;;;;;;;;;;;;;;-2.63;97.82;100081.06;1853316;75;20558;-43
2021/01/15 07:03:04;;;;;;;;;;;;;;;-2.62;97.59;100077.23;1843043;77;20213;-44
2021/01/15 07:05:32;;;;;;;;;;;;;;;-2.62;97.28;100082.36;1870504;75;20200;-45
2021/01/15 07:08:00;;;;;;;;;;;;;;;-2.61;97.05;100076.82;1832033;75;20162;-44
2021/01/15 07:10:28;;;;;;;;;;;;;;;-2.60;96.80;100082.41;1869913;75;20197;-48
2021/01/15 07:13:00;;;;;;;;;;;;;;;-2.58;96.50;100091.02;1876759;75;20140;-45
2021/01/15 07:15:28;;;;;;;;;;;;;;;-2.58;96.23;100093.18;1874548;75;20204;-44
2021/01/15 07:17:58;;;;;;;;;;;;;;;-2.56;95.97;100104.77;1858069;75;20451;-44
2021/01/15 07:20:29;;;;;;;;;;;;;;;-2.54;95.85;100105.66;1872091;75;20135;-43
2021/01/15 07:23:00;;;;;;;;;;;;;;;-2.53;95.66;100101.86;1873692;75;20454;-43
2021/01/15 07:25:28;;;;;;;;;;;;;;;-2.53;95.38;100109.97;1867788;75;20213;-43
2021/01/15 07:27:56;;;;;;;;;;;;;;;-2.56;95.12;100097.08;1873532;75;20272;-44
2021/01/15 07:30:29;;;;;;;;;;;;;;;-2.57;94.94;100097.90;1874688;75;20210;-45
2021/01/15 07:32:58;;;;;;;;;;;;;;;-2.57;94.82;100098.77;1867770;75;20129;-45
2021/01/15 07:35:29;;;;;;;;;;;;;;;-2.56;94.76;100097.91;1872738;75;20180;-45
2021/01/15 07:38:09;;;;;;;;;;;;;;;-2.52;94.71;100104.02;1871447;75;20280;-44
2021/01/15 07:40:37;;;;;;;;;;;;;;;-2.48;94.68;100107.97;1867268;75;20201;-42
2021/01/15 07:43:07;;;;;;;;;;;;;;;-2.45;94.58;100111.91;1867525;75;20265;-45
2021/01/15 07:45:41;;;;;;;;;;;;;;;-2.43;94.48;100114.53;1876621;75;20198;-45
2021/01/15 07:48:11;;;;;;;;;;;;;;;-2.41;94.41;100113.72;1867779;75;20194;-46
2021/01/15 07:50:44;;;;;;;;;;;;;;;-2.37;94.22;100115.09;1869061;75;20196;-43
2021/01/15 07:53:20;;;;;;;;;;;;;;;-2.38;93.96;100119.77;1871290;75;20452;-44
2021/01/15 07:55:53;;;;;;;;;;;;;;;-2.36;93.81;100125.37;1870840;75;20158;-43
2021/01/15 07:58:24;;;;;;;;;;;;;;;-2.32;93.72;100131.47;1872288;75;20223;-46
2021/01/15 08:00:51;;;;;;;;;;;;;;;-2.28;93.59;100131.58;1860126;75;20197;-45
2021/01/15 08:03:20;;;;;;;;;;;;;;;-2.26;93.44;100139.33;1869948;75;20158;-46
2021/01/15 08:05:48;;;;;;;;;;;;;;;-2.26;93.25;100140.61;1866589;77;20324;-45
2021/01/15 08:08:17;;;;;;;;;;;;;;;-2.27;93.11;100141.02;1848153;75;20404;-45
2021/01/15 08:10:48;;;;;;;;;;;;;;;-2.27;92.98;100146.16;1870131;75;20200;-44
2021/01/15 08:13:23;;;;;;;;;;;;;;;-2.28;92.82;100137.12;1868345;75;20137;-44
2021/01/15 08:15:56;;;;;;;;;;;;;;;-2.28;92.65;100136.72;1877124;75;20185;-45
2021/01/15 08:18:30;;;;;;;;;;;;;;;-2.28;92.54;100135.43;1797786;75;20681;-44
2021/01/15 08:21:02;;;;;;;;;;;;;;;-2.27;92.35;100135.89;1760650;77;20673;-44
2021/01/15 08:23:31;;;;;;;;;;;;;;;-2.27;92.20;100138.87;1840199;75;20194;-45
2021/01/15 08:26:18;;;;;;;;;;;;;;;-2.27;92.12;100144.88;1843556;75;20293;-45
2021/01/15 08:28:50;;;;;;;;;;;;;;;-2.27;92.03;100144.00;1836050;75;20170;-45
2021/01/15 08:31:23;;;;;;;;;;;;;;;-2.26;92.01;100147.03;1844575;75;20378;-44
2021/01/15 08:34:08;;;;;;;;;;;;;;;-2.25;91.99;100149.64;1870781;75;20192;-45
2021/01/15 08:36:39;;;;;;;;;;;;;;;-2.24;92.01;100138.55;1860021;75;20197;-45
2021/01/15 08:39:08;;;;;;;;;;;;;;;-2.24;91.99;100144.97;1866989;75;20182;-47
2021/01/15 08:41:37;;;;;;;;;;;;;;;-2.23;92.00;100141.55;1871778;75;20269;-46
2021/01/15 08:44:06;;;;;;;;;;;;;;;-2.21;91.98;100139.02;1867230;75;20162;-46
2021/01/15 08:46:47;;;;;;;;;;;;;;;-2.18;92.00;100127.15;1802287;75;20289;-44
2021/01/15 08:49:23;;;;;;;;;;;;;;;-2.17;91.88;100127.61;1806533;75;20209;-45
2021/01/15 08:51:54;;;;;;;;;;;;;;;-2.15;91.97;100122.48;1791532;75;20209;-43
2021/01/15 08:54:24;;;;;;;;;;;;;;;-2.10;92.11;100127.34;1803532;75;20195;-45
2021/01/15 08:56:55;;;;;;;;;;;;;;;-2.03;92.21;100123.66;1766149;77;20313;-45
2021/01/15 08:59:32;;;;;;;;;;;;;;;-1.96;92.21;100119.53;1747230;78;20193;-45
2021/01/15 09:02:04;;;;;;;;;;;;;;;-1.89;92.11;100124.40;1808448;78;20195;-46
2021/01/15 09:04:34;;;;;;;;;;;;;;;-1.86;91.99;100121.50;1781443;78;20509;-45
2021/01/15 09:07:09;;;;;;;;;;;;;;;-1.81;91.90;100122.89;1793686;79;20179;-45
2021/01/15 09:09:39;;;;;;;;;;;;;;;-1.77;91.85;100115.72;1838856;77;20280;-45
2021/01/15 09:12:12;;;;;;;;;;;;;;;-1.69;91.85;100120.19;1835042;77;20193;-49
2021/01/15 09:14:39;;;;;;;;;;;;;;;-1.61;91.72;100124.22;1836017;77;20197;-46
2021/01/15 09:17:07;;;;;;;;;;;;;;;-1.56;91.57;100117.89;1836086;77;20278;-47
2021/01/15 09:19:36;;;;;;;;;;;;;;;-1.50;91.37;100116.73;1835839;77;20284;-43
2021/01/15 09:22:09;;;;;;;;;;;;;;;-1.47;91.14;100107.41;1808252;78;20469;-46
2021/01/15 09:24:38;;;;;;;;;;;;;;;-1.41;90.91;100101.11;1836190;77;20157;-42
2021/01/15 09:27:07;;;;;;;;;;;;;;;-1.35;90.75;100102.52;1783934;78;20194;-45
2021/01/15 09:29:36;;;;;;;;;;;;;;;-1.33;90.57;100098.70;1829469;77;20224;-45
2021/01/15 09:32:05;;;;;;;;;;;;;;;-1.31;90.44;100091.45;1805187;78;20193;-47
2021/01/15 09:34:35;;;;;;;;;;;;;;;-1.26;90.25;100098.00;1800302;78;20508;-45
2021/01/15 09:37:11;;;;;;;;;;;;;;;-1.24;90.11;100099.75;1810052;78;20309;-45
2021/01/15 09:39:40;;;;;;;;;;;;;;;-1.18;89.95;100103.31;1761238;80;20312;-48
2021/01/15 09:42:19;;;;;;;;;;;;;;;-1.21;89.60;100112.69;1717774;80;20194;-45
2021/01/15 09:44:51;;;;;;;;;;;;;;;-1.33;89.50;100112.44;1803337;78;20276;-45
2021/01/15 09:47:46;;;;;;;;;;;;;;;-1.38;89.54;100097.30;1774956;78;20178;-44
2021/01/15 09:50:21;;;;;;;;;;;;;;;-1.36;89.67;100094.77;1747760;78;20472;-45
2021/01/15 09:52:49;;;;;;;;;;;;;;;-1.29;89.89;100092.78;1772977;78;20146;-45
2021/01/15 09:55:18;;;;;;;;;;;;;;;-1.23;89.93;100089.05;1807421;78;20339;-45
2021/01/15 09:57:47;;;;;;;;;;;;;;;-1.15;89.98;100084.07;1809914;78;20160;-45
2021/01/15 10:00:17;;;;;;;;;;;;;;;-1.13;90.08;100087.55;1760395;79;20150;-45
2021/01/15 10:02:44;;;;;;;;;;;;;;;-1.09;90.12;100087.63;1808418;78;20491;-44
2021/01/15 10:05:12;;;;;;;;;;;;;;;-1.12;89.91;100089.29;1810111;78;20604;-47
2021/01/15 10:07:40;;;;;;;;;;;;;;;-1.12;90.05;100080.29;1808795;78;20142;-46
2021/01/15 10:10:12;;;;;;;;;;;;;;;-1.08;90.14;100075.64;1828641;77;20193;-44
2021/01/15 10:12:44;;;;;;;;;;;;;;;-0.99;90.20;100078.41;1829329;77;20265;-46
2021/01/15 10:15:13;;;;;;;;;;;;;;;-0.89;90.14;100080.30;1827874;77;20310;-46
2021/01/15 10:17:47;;;;;;;;;;;;;;;-0.89;89.90;100075.16;1827308;77;20183;-46
2021/01/15 10:20:18;;;;;;;;;;;;;;;-0.94;89.80;100062.22;1825290;77;20141;-45
2021/01/15 10:22:46;;;;;;;;;;;;;;;-0.93;89.73;100069.52;1828922;77;20187;-43
2021/01/15 10:26:50;;;;;;;;;;;;;;;-0.88;89.80;100070.47;1896862;74;20286;-43
2021/01/15 10:29:18;;;;;;;;;;;;;;;-0.86;89.74;100072.24;1859804;75;20936;-45
2021/01/15 10:31:54;;;;;;;;;;;;;;;-0.87;89.58;100073.08;1871189;75;20225;-45
2021/01/15 10:34:22;;;;;;;;;;;;;;;-0.87;89.47;100078.64;1870999;75;20547;-45
2021/01/15 10:36:50;;;;;;;;;;;;;;;-0.89;89.46;100080.30;1873274;75;20193;-45
2021/01/15 10:39:18;;;;;;;;;;;;;;;-0.86;89.52;100076.10;1870662;75;20282;-43
2021/01/15 10:41:48;;;;;;;;;;;;;;;-0.80;89.56;100070.20;1874565;75;20124;-44
2021/01/15 10:44:16;;;;;;;;;;;;;;;-0.73;89.46;100068.61;1871859;75;20465;-43
2021/01/15 10:46:45;;;;;;;;;;;;;;;-0.75;89.06;100062.55;1870276;75;20194;-44
2021/01/15 10:49:14;;;;;;;;;;;;;;;-0.81;88.81;100070.62;1878794;75;20168;-44
2021/01/15 10:51:42;;;;;;;;;;;;;;;-0.87;88.42;100069.22;1868217;75;20266;-44
2021/01/15 10:54:10;;;;;;;;;;;;;;;-0.89;88.22;100061.88;1873531;75;20211;-46
2021/01/15 10:56:42;;;;;;;;;;;;;;;-0.88;88.07;100058.89;1872934;75;20206;-42
2021/01/15 10:59:10;;;;;;;;;;;;;;;-0.92;87.67;100056.66;1875362;75;20193;-44
2021/01/15 11:01:41;;;;;;;;;;;;;;;-0.94;87.46;100063.92;1873017;75;20459;-44
2021/01/15 11:04:10;;;;;;;;;;;;;;;-0.87;87.37;100061.50;1870185;75;20232;-44
2021/01/15 11:06:40;;;;;;;;;;;;;;;-0.77;87.08;100061.65;1878077;75;20227;-46
2021/01/15 11:09:10;;;;;;;;;;;;;;;-0.73;86.19;100060.47;1876336;75;20221;-45
2021/01/15 11:11:46;;;;;;;;;;;;;;;-0.84;85.30;100058.97;1874476;75;20203;-45
2021/01/15 11:14:15;;;;;;;;;;;;;;;-0.94;84.86;100057.07;1866339;75;20142;-44
2021/01/15 11:16:43;;;;;;;;;;;;;;;-0.93;84.68;100048.94;1879451;75;20206;-44
2021/01/15 11:19:12;;;;;;;;;;;;;;;-0.89;84.68;100050.30;1872650;75;20207;-45
2021/01/15 11:21:39;;;;;;;;;;;;;;;-0.84;84.48;100048.67;1878534;75;20196;-44
2021/01/15 11:24:08;;;;;;;;;;;;;;;-0.84;84.15;100043.94;1870520;75;20439;-43
2021/01/15 11:26:36;;;;;;;;;;;;;;;-0.87;84.08;100049.05;1883148;75;20132;-44
2021/01/15 11:29:06;;;;;;;;;;;;;;;-0.85;84.02;100042.20;1860858;75;20193;-43
2021/01/15 11:31:34;;;;;;;;;;;;;;;-0.84;84.09;100046.09;1868745;75;20182;-42
2021/01/15 11:34:02;;;;;;;;;;;;;;;-0.82;84.33;100042.27;1872150;75;20186;-44
2021/01/15 11:36:33;;;;;;;;;;;;;;;-0.83;84.59;100042.69;1874531;75;20194;-45
2021/01/15 11:39:02;;;;;;;;;;;;;;;-0.86;84.82;100040.08;1869112;75;20182;-46
2021/01/15 11:41:30;;;;;;;;;;;;;;;-0.86;84.92;100036.64;1885820;75;20142;-44
2021/01/15 11:43:57;;;;;;;;;;;;;;;-0.87;85.04;100028.47;1876889;75;20231;-46
2021/01/15 11:46:29;;;;;;;;;;;;;;;-0.85;85.18;100030.63;1874904;75;20192;-46
2021/01/15 11:49:01;;;;;;;;;;;;;;;-0.84;85.42;100029.38;1873880;75;20190;-46
2021/01/15 11:51:29;;;;;;;;;;;;;;;-0.81;85.50;100036.30;1871401;75;20182;-45
2021/01/15 11:53:57;;;;;;;;;;;;;;;-0.81;85.57;100033.72;1869752;75;20186;-45
2021/01/15 11:56:26;;;;;;;;;;;;;;;-0.82;85.63;100037.13;1869380;75;20217;-45
2021/01/15 11:58:53;;;;;;;;;;;;;;;-0.81;85.73;100033.72;1873298;75;20172;-45
2021/01/15 12:01:21;;;;;;;;;;;;;;;-0.78;85.60;100036.75;1870265;75;20182;-45
2021/01/15 12:03:50;;;;;;;;;;;;;;;-0.78;85.43;100026.04;1869074;75;20373;-48
2021/01/15 12:06:23;;;;;;;;;;;;;;;-0.79;85.16;100032.47;1805247;75;20490;-45
2021/01/15 12:08:52;;;;;;;;;;;;;;;-0.79;85.06;100033.75;1839093;77;20187;-45
2021/01/15 12:11:24;;;;;;;;;;;;;;;-0.78;84.94;100039.33;1833055;77;20196;-45
2021/01/15 12:14:07;;;;;;;;;;;;;;;-0.79;84.80;100038.91;1801194;77;20142;-47
2021/01/15 12:16:43;;;;;;;;;;;;;;;-0.80;84.56;100043.18;1791203;76;20217;-45
2021/01/15 12:19:20;;;;;;;;;;;;;;;-0.84;84.53;100038.38;1766358;77;20189;-45
2021/01/15 12:21:48;;;;;;;;;;;;;;;-0.83;84.58;100048.25;1820412;77;20235;-45
2021/01/15 12:24:20;;;;;;;;;;;;;;;-0.81;84.58;100041.44;1836995;77;20226;-46
2021/01/15 12:26:58;;;;;;;;;;;;;;;-0.82;84.43;100039.28;1761623;77;20182;-56
2021/01/15 12:29:29;;;;;;;;;;;;;;;-0.82;84.58;100035.84;1794061;77;20204;-46
2021/01/15 12:31:57;;;;;;;;;;;;;;;-0.81;84.58;100033.30;1841349;77;20547;-59
2021/01/15 12:34:25;;;;;;;;;;;;;;;-0.76;84.52;100035.95;1837718;77;20206;-50
2021/01/15 12:36:54;;;;;;;;;;;;;;;-0.73;84.28;100035.15;1836000;76;20195;-43
2021/01/15 12:39:22;;;;;;;;;;;;;;;-0.72;84.05;100039.02;1834404;77;20173;-44
2021/01/15 12:41:55;;;;;;;;;;;;;;;-0.73;83.59;100046.73;1835443;77;20184;-46
2021/01/15 12:44:34;;;;;;;;;;;;;;;-0.81;83.36;100044.88;1809338;77;20186;-46
2021/01/15 12:47:03;;;;;;;;;;;;;;;-0.91;83.19;100044.25;1812847;77;20212;-45
2021/01/15 12:49:31;;;;;;;;;;;;;;;-0.96;83.40;100054.88;1813145;78;20406;-47
2021/01/15 12:51:59;;;;;;;;;;;;;;;-0.97;83.55;100053.55;1829716;77;20233;-44
2021/01/15 12:54:32;;;;;;;;;;;;;;;-0.98;83.59;100053.10;1833969;77;20213;-43
2021/01/15 12:57:06;;;;;;;;;;;;;;;-1.04;83.44;100044.86;1798111;77;20192;-44
2021/01/15 12:59:34;;;;;;;;;;;;;;;-1.07;83.60;100037.52;1795172;78;20180;-45
2021/01/15 13:02:01;;;;;;;;;;;;;;;-1.06;83.83;100049.12;1811007;77;20189;-43
2021/01/15 13:04:30;;;;;;;;;;;;;;;-1.06;83.80;100045.27;1829646;77;20279;-43
2021/01/15 13:06:58;;;;;;;;;;;;;;;-1.05;83.89;100051.28;1804356;78;20196;-44